sensor_id;sensor_type;location;lat;lon;timestamp;temperature;humidity
40340;DHT22;26044;50.864;20.658;2022-08-16T00:01:20;19.70;99.90
40340;DHT22;26044;50.864;20.658;2022-08-16T00:03:51;19.60;99.90
40340;DHT22;26044;50.864;20.658;2022-08-16T00:06:18;19.60;99.90
40340;DHT22;26044;50.864;20.658;2022-08-16T00:08:46;19.60;99.90
40340;DHT22;26044;50.864;20.658;2022-08-16T00:11:14;19.60;99.90
40340;DHT22;26044;50.864;20.658;2022-08-16T00:13:45;19.60;99.90
40340;DHT22;26044;50.864;20.658;2022-08-16T00:16:25;19.60;99.90
40340;DHT22;26044;50.864;20.658;2022-08-16T00:19:14;19.60;99.90
40340;DHT22;26044;50.864;20.658;2022-08-16T00:21:42;19.60;99.90
40340;DHT22;26044;50.864;20.658;2022-08-16T00:24:10;19.60;99.90
40340;DHT22;26044;50.864;20.658;2022-08-16T00:26:39;19.60;99.90
40340;DHT22;26044;50.864;20.658;2022-08-16T00:29:12;19.60;99.90
40340;DHT22;26044;50.864;20.658;2022-08-16T00:31:45;19.50;99.90
40340;DHT22;26044;50.864;20.658;2022-08-16T00:34:27;19.50;99.90
40340;DHT22;26044;50.864;20.658;2022-08-16T00:37:14;19.50;99.90
40340;DHT22;26044;50.864;20.658;2022-08-16T00:39:45;19.60;99.90
40340;DHT22;26044;50.864;20.658;2022-08-16T00:42:13;19.60;99.90
40340;DHT22;26044;50.864;20.658;2022-08-16T00:45:04;19.60;99.90
40340;DHT22;26044;50.864;20.658;2022-08-16T00:47:37;19.50;99.90
40340;DHT22;26044;50.864;20.658;2022-08-16T00:50:08;19.50;99.90
40340;DHT22;26044;50.864;20.658;2022-08-16T00:52:41;19.40;99.90
40340;DHT22;26044;50.864;20.658;2022-08-16T00:55:20;19.40;99.90
40340;DHT22;26044;50.864;20.658;2022-08-16T00:57:54;19.40;99.90
40340;DHT22;26044;50.864;20.658;2022-08-16T01:00:29;19.40;99.90
40340;DHT22;26044;50.864;20.658;2022-08-16T01:02:58;19.30;99.90
40340;DHT22;26044;50.864;20.658;2022-08-16T01:05:28;19.30;99.90
40340;DHT22;26044;50.864;20.658;2022-08-16T01:07:55;19.30;99.90
40340;DHT22;26044;50.864;20.658;2022-08-16T01:10:25;19.20;99.90
40340;DHT22;26044;50.864;20.658;2022-08-16T01:13:06;19.20;99.90
40340;DHT22;26044;50.864;20.658;2022-08-16T01:15:44;19.20;99.90
40340;DHT22;26044;50.864;20.658;2022-08-16T01:18:16;19.20;99.90
40340;DHT22;26044;50.864;20.658;2022-08-16T01:21:24;19.10;99.90
40340;DHT22;26044;50.864;20.658;2022-08-16T01:26:29;19.10;99.90
40340;DHT22;26044;50.864;20.658;2022-08-16T01:29:05;19.10;99.90
40340;DHT22;26044;50.864;20.658;2022-08-16T01:31:35;19.10;99.90
40340;DHT22;26044;50.864;20.658;2022-08-16T01:34:09;19.10;99.90
40340;DHT22;26044;50.864;20.658;2022-08-16T01:37:05;19.00;99.90
40340;DHT22;26044;50.864;20.658;2022-08-16T01:39:34;19.00;99.90
40340;DHT22;26044;50.864;20.658;2022-08-16T01:42:05;19.00;99.90
40340;DHT22;26044;50.864;20.658;2022-08-16T01:44:40;19.00;99.90
40340;DHT22;26044;50.864;20.658;2022-08-16T01:47:09;19.10;99.90
40340;DHT22;26044;50.864;20.658;2022-08-16T01:49:40;19.10;99.90
40340;DHT22;26044;50.864;20.658;2022-08-16T01:52:27;19.10;99.90
40340;DHT22;26044;50.864;20.658;2022-08-16T01:54:56;19.20;99.90
40340;DHT22;26044;50.864;20.658;2022-08-16T01:57:25;19.20;99.90
40340;DHT22;26044;50.864;20.658;2022-08-16T01:59:53;19.10;99.90
40340;DHT22;26044;50.864;20.658;2022-08-16T02:02:22;19.10;99.90
40340;DHT22;26044;50.864;20.658;2022-08-16T02:04:55;19.10;99.90
40340;DHT22;26044;50.864;20.658;2022-08-16T02:07:23;19.10;99.90
40340;DHT22;26044;50.864;20.658;2022-08-16T02:09:52;19.10;99.90
40340;DHT22;26044;50.864;20.658;2022-08-16T02:12:26;19.00;99.90
40340;DHT22;26044;50.864;20.658;2022-08-16T02:15:16;19.10;99.90
40340;DHT22;26044;50.864;20.658;2022-08-16T02:17:52;19.10;99.90
40340;DHT22;26044;50.864;20.658;2022-08-16T02:20:21;19.10;99.90
40340;DHT22;26044;50.864;20.658;2022-08-16T02:22:52;19.10;99.90
40340;DHT22;26044;50.864;20.658;2022-08-16T02:25:21;19.10;99.90
40340;DHT22;26044;50.864;20.658;2022-08-16T02:27:48;19.20;99.90
40340;DHT22;26044;50.864;20.658;2022-08-16T02:30:23;19.20;99.90
40340;DHT22;26044;50.864;20.658;2022-08-16T02:33:10;19.20;99.90
40340;DHT22;26044;50.864;20.658;2022-08-16T02:35:37;19.20;99.90
40340;DHT22;26044;50.864;20.658;2022-08-16T02:38:25;19.20;99.90
40340;DHT22;26044;50.864;20.658;2022-08-16T02:40:52;19.20;99.90
40340;DHT22;26044;50.864;20.658;2022-08-16T02:43:21;19.20;99.90
40340;DHT22;26044;50.864;20.658;2022-08-16T02:45:53;19.20;99.90
40340;DHT22;26044;50.864;20.658;2022-08-16T02:48:21;19.20;99.90
40340;DHT22;26044;50.864;20.658;2022-08-16T02:51:01;19.20;99.90
40340;DHT22;26044;50.864;20.658;2022-08-16T02:53:40;19.20;99.90
40340;DHT22;26044;50.864;20.658;2022-08-16T02:56:10;19.20;99.90
40340;DHT22;26044;50.864;20.658;2022-08-16T02:58:41;19.20;99.90
40340;DHT22;26044;50.864;20.658;2022-08-16T03:01:10;19.10;99.90
40340;DHT22;26044;50.864;20.658;2022-08-16T03:03:52;19.10;99.90
40340;DHT22;26044;50.864;20.658;2022-08-16T03:06:39;19.10;99.90
40340;DHT22;26044;50.864;20.658;2022-08-16T03:09:09;19.10;99.90
40340;DHT22;26044;50.864;20.658;2022-08-16T03:11:41;19.10;99.90
40340;DHT22;26044;50.864;20.658;2022-08-16T03:14:09;19.10;99.90
40340;DHT22;26044;50.864;20.658;2022-08-16T03:16:37;19.10;99.90
40340;DHT22;26044;50.864;20.658;2022-08-16T03:19:25;19.10;99.90
40340;DHT22;26044;50.864;20.658;2022-08-16T03:22:12;19.00;99.90
40340;DHT22;26044;50.864;20.658;2022-08-16T03:24:54;19.00;99.90
40340;DHT22;26044;50.864;20.658;2022-08-16T03:27:23;19.00;99.90
40340;DHT22;26044;50.864;20.658;2022-08-16T03:29:49;19.00;99.90
40340;DHT22;26044;50.864;20.658;2022-08-16T03:32:20;19.00;99.90
40340;DHT22;26044;50.864;20.658;2022-08-16T03:34:47;18.90;99.90
40340;DHT22;26044;50.864;20.658;2022-08-16T03:37:16;18.90;99.90
40340;DHT22;26044;50.864;20.658;2022-08-16T03:39:42;18.90;99.90
40340;DHT22;26044;50.864;20.658;2022-08-16T03:42:09;18.80;99.90
40340;DHT22;26044;50.864;20.658;2022-08-16T03:44:45;18.80;99.90
40340;DHT22;26044;50.864;20.658;2022-08-16T03:47:15;18.80;99.90
40340;DHT22;26044;50.864;20.658;2022-08-16T03:49:46;18.80;99.90
40340;DHT22;26044;50.864;20.658;2022-08-16T03:52:18;18.80;99.90
40340;DHT22;26044;50.864;20.658;2022-08-16T03:54:50;18.80;99.90
40340;DHT22;26044;50.864;20.658;2022-08-16T03:57:23;18.80;99.90
40340;DHT22;26044;50.864;20.658;2022-08-16T03:59:57;18.90;99.90
40340;DHT22;26044;50.864;20.658;2022-08-16T04:02:26;18.90;99.90
40340;DHT22;26044;50.864;20.658;2022-08-16T04:04:57;18.90;99.90
40340;DHT22;26044;50.864;20.658;2022-08-16T04:07:24;18.90;99.90
40340;DHT22;26044;50.864;20.658;2022-08-16T04:09:51;19.00;99.90
40340;DHT22;26044;50.864;20.658;2022-08-16T04:12:18;19.00;99.90
40340;DHT22;26044;50.864;20.658;2022-08-16T04:15:08;19.10;99.90
40340;DHT22;26044;50.864;20.658;2022-08-16T04:17:35;19.20;99.90
40340;DHT22;26044;50.864;20.658;2022-08-16T04:20:04;19.20;99.90
40340;DHT22;26044;50.864;20.658;2022-08-16T04:22:54;19.20;99.90
40340;DHT22;26044;50.864;20.658;2022-08-16T04:25:22;19.30;99.90
40340;DHT22;26044;50.864;20.658;2022-08-16T04:27:49;19.30;99.90
40340;DHT22;26044;50.864;20.658;2022-08-16T04:30:24;19.40;99.90
40340;DHT22;26044;50.864;20.658;2022-08-16T04:33:01;19.50;99.90
40340;DHT22;26044;50.864;20.658;2022-08-16T04:35:30;19.50;99.90
40340;DHT22;26044;50.864;20.658;2022-08-16T04:38:00;19.60;99.90
40340;DHT22;26044;50.864;20.658;2022-08-16T04:40:46;19.70;99.90
40340;DHT22;26044;50.864;20.658;2022-08-16T04:43:15;19.80;99.90
40340;DHT22;26044;50.864;20.658;2022-08-16T04:45:43;19.80;99.90
40340;DHT22;26044;50.864;20.658;2022-08-16T04:48:11;19.90;99.90
40340;DHT22;26044;50.864;20.658;2022-08-16T04:50:54;19.90;99.90
40340;DHT22;26044;50.864;20.658;2022-08-16T04:53:21;20.00;99.90
40340;DHT22;26044;50.864;20.658;2022-08-16T04:55:50;20.10;99.90
40340;DHT22;26044;50.864;20.658;2022-08-16T04:58:19;20.10;99.90
40340;DHT22;26044;50.864;20.658;2022-08-16T05:01:06;20.20;99.90
40340;DHT22;26044;50.864;20.658;2022-08-16T05:03:34;20.20;99.90
40340;DHT22;26044;50.864;20.658;2022-08-16T05:06:08;20.20;99.90
40340;DHT22;26044;50.864;20.658;2022-08-16T05:08:36;20.30;99.90
40340;DHT22;26044;50.864;20.658;2022-08-16T05:11:05;20.30;99.90
40340;DHT22;26044;50.864;20.658;2022-08-16T05:13:36;20.30;99.90
40340;DHT22;26044;50.864;20.658;2022-08-16T05:16:28;20.40;99.90
40340;DHT22;26044;50.864;20.658;2022-08-16T05:18:58;20.40;99.90
40340;DHT22;26044;50.864;20.658;2022-08-16T05:21:26;20.40;99.90
40340;DHT22;26044;50.864;20.658;2022-08-16T05:24:05;20.50;99.90
40340;DHT22;26044;50.864;20.658;2022-08-16T05:26:33;20.50;99.90
40340;DHT22;26044;50.864;20.658;2022-08-16T05:29:02;20.50;99.90
40340;DHT22;26044;50.864;20.658;2022-08-16T05:31:30;20.60;99.90
40340;DHT22;26044;50.864;20.658;2022-08-16T05:33:59;20.70;99.90
40340;DHT22;26044;50.864;20.658;2022-08-16T05:36:28;20.80;99.90
40340;DHT22;26044;50.864;20.658;2022-08-16T05:39:07;20.90;99.90
40340;DHT22;26044;50.864;20.658;2022-08-16T05:41:36;20.90;99.90
40340;DHT22;26044;50.864;20.658;2022-08-16T05:44:13;21.10;99.90
40340;DHT22;26044;50.864;20.658;2022-08-16T05:46:58;21.10;99.90
40340;DHT22;26044;50.864;20.658;2022-08-16T05:49:28;21.20;99.90
40340;DHT22;26044;50.864;20.658;2022-08-16T05:52:07;21.20;99.90
40340;DHT22;26044;50.864;20.658;2022-08-16T05:54:39;21.20;99.90
40340;DHT22;26044;50.864;20.658;2022-08-16T05:57:16;21.30;99.90
40340;DHT22;26044;50.864;20.658;2022-08-16T05:59:44;21.40;99.90
40340;DHT22;26044;50.864;20.658;2022-08-16T06:02:16;21.30;99.90
40340;DHT22;26044;50.864;20.658;2022-08-16T06:04:43;21.40;99.90
40340;DHT22;26044;50.864;20.658;2022-08-16T06:07:11;21.40;99.90
40340;DHT22;26044;50.864;20.658;2022-08-16T06:09:52;21.40;99.90
40340;DHT22;26044;50.864;20.658;2022-08-16T06:12:21;21.50;99.90
40340;DHT22;26044;50.864;20.658;2022-08-16T06:14:59;21.50;99.90
40340;DHT22;26044;50.864;20.658;2022-08-16T06:17:33;21.60;99.90
40340;DHT22;26044;50.864;20.658;2022-08-16T06:20:13;21.80;99.90
40340;DHT22;26044;50.864;20.658;2022-08-16T06:22:43;21.90;99.90
40340;DHT22;26044;50.864;20.658;2022-08-16T06:25:24;22.00;99.90
40340;DHT22;26044;50.864;20.658;2022-08-16T06:28:06;22.10;99.90
40340;DHT22;26044;50.864;20.658;2022-08-16T06:30:34;22.20;99.90
40340;DHT22;26044;50.864;20.658;2022-08-16T06:33:09;22.20;99.90
40340;DHT22;26044;50.864;20.658;2022-08-16T06:35:38;22.30;99.90
40340;DHT22;26044;50.864;20.658;2022-08-16T06:38:07;22.30;99.90
40340;DHT22;26044;50.864;20.658;2022-08-16T06:40:54;22.50;99.90
40340;DHT22;26044;50.864;20.658;2022-08-16T06:43:21;22.70;99.90
40340;DHT22;26044;50.864;20.658;2022-08-16T06:45:53;22.80;99.90
40340;DHT22;26044;50.864;20.658;2022-08-16T06:48:20;22.80;99.90
40340;DHT22;26044;50.864;20.658;2022-08-16T06:50:59;22.90;99.90
40340;DHT22;26044;50.864;20.658;2022-08-16T06:53:27;23.00;99.90
40340;DHT22;26044;50.864;20.658;2022-08-16T06:55:57;23.10;99.90
40340;DHT22;26044;50.864;20.658;2022-08-16T06:58:24;23.20;99.90
40340;DHT22;26044;50.864;20.658;2022-08-16T07:00:59;23.30;99.90
40340;DHT22;26044;50.864;20.658;2022-08-16T07:03:27;23.40;99.90
40340;DHT22;26044;50.864;20.658;2022-08-16T07:05:58;23.50;99.90
40340;DHT22;26044;50.864;20.658;2022-08-16T07:08:26;23.50;99.90
40340;DHT22;26044;50.864;20.658;2022-08-16T07:10:54;23.40;99.90
40340;DHT22;26044;50.864;20.658;2022-08-16T07:13:22;23.50;99.90
40340;DHT22;26044;50.864;20.658;2022-08-16T07:16:12;23.50;99.90
40340;DHT22;26044;50.864;20.658;2022-08-16T07:18:45;23.60;99.90
40340;DHT22;26044;50.864;20.658;2022-08-16T07:21:27;23.70;99.90
40340;DHT22;26044;50.864;20.658;2022-08-16T07:24:14;23.90;99.90
40340;DHT22;26044;50.864;20.658;2022-08-16T07:26:57;24.00;99.90
40340;DHT22;26044;50.864;20.658;2022-08-16T07:29:24;24.10;99.90
40340;DHT22;26044;50.864;20.658;2022-08-16T07:31:51;24.20;99.90
40340;DHT22;26044;50.864;20.658;2022-08-16T07:34:19;24.30;99.90
40340;DHT22;26044;50.864;20.658;2022-08-16T07:37:07;24.40;99.90
40340;DHT22;26044;50.864;20.658;2022-08-16T07:39:35;24.50;99.90
40340;DHT22;26044;50.864;20.658;2022-08-16T07:42:09;24.40;99.90
40340;DHT22;26044;50.864;20.658;2022-08-16T07:44:51;24.60;99.90
40340;DHT22;26044;50.864;20.658;2022-08-16T07:47:19;24.60;99.90
40340;DHT22;26044;50.864;20.658;2022-08-16T07:49:50;24.70;99.90
40340;DHT22;26044;50.864;20.658;2022-08-16T07:52:24;24.70;99.90
40340;DHT22;26044;50.864;20.658;2022-08-16T07:54:56;24.80;99.90
40340;DHT22;26044;50.864;20.658;2022-08-16T07:57:23;25.00;99.90
40340;DHT22;26044;50.864;20.658;2022-08-16T07:59:50;24.90;99.90
40340;DHT22;26044;50.864;20.658;2022-08-16T08:02:17;24.90;99.90
40340;DHT22;26044;50.864;20.658;2022-08-16T08:04:46;25.00;99.90
40340;DHT22;26044;50.864;20.658;2022-08-16T08:07:13;25.00;99.90
40340;DHT22;26044;50.864;20.658;2022-08-16T08:09:42;25.00;99.90
40340;DHT22;26044;50.864;20.658;2022-08-16T08:12:10;25.20;99.90
40340;DHT22;26044;50.864;20.658;2022-08-16T08:14:57;25.10;99.90
40340;DHT22;26044;50.864;20.658;2022-08-16T08:17:24;25.10;99.90
40340;DHT22;26044;50.864;20.658;2022-08-16T08:20:12;25.20;99.90
40340;DHT22;26044;50.864;20.658;2022-08-16T08:22:55;25.30;99.90
40340;DHT22;26044;50.864;20.658;2022-08-16T08:25:28;25.50;99.90
40340;DHT22;26044;50.864;20.658;2022-08-16T08:28:16;25.40;99.90
40340;DHT22;26044;50.864;20.658;2022-08-16T08:30:46;25.50;99.90
40340;DHT22;26044;50.864;20.658;2022-08-16T08:33:27;25.60;99.90
40340;DHT22;26044;50.864;20.658;2022-08-16T08:35:57;25.70;99.90
40340;DHT22;26044;50.864;20.658;2022-08-16T08:38:27;25.70;99.90
40340;DHT22;26044;50.864;20.658;2022-08-16T08:41:12;25.70;99.90
40340;DHT22;26044;50.864;20.658;2022-08-16T08:43:39;25.70;99.90
40340;DHT22;26044;50.864;20.658;2022-08-16T08:46:08;25.70;99.90
40340;DHT22;26044;50.864;20.658;2022-08-16T08:48:47;25.80;99.90
40340;DHT22;26044;50.864;20.658;2022-08-16T08:51:28;25.70;99.90
40340;DHT22;26044;50.864;20.658;2022-08-16T08:54:01;25.70;99.90
40340;DHT22;26044;50.864;20.658;2022-08-16T08:56:36;25.80;99.90
40340;DHT22;26044;50.864;20.658;2022-08-16T08:59:12;25.80;99.90
40340;DHT22;26044;50.864;20.658;2022-08-16T09:01:47;25.90;99.90
40340;DHT22;26044;50.864;20.658;2022-08-16T09:04:25;26.10;99.90
40340;DHT22;26044;50.864;20.658;2022-08-16T09:06:53;26.10;99.90
40340;DHT22;26044;50.864;20.658;2022-08-16T09:09:21;26.20;99.90
40340;DHT22;26044;50.864;20.658;2022-08-16T09:11:48;26.20;99.90
40340;DHT22;26044;50.864;20.658;2022-08-16T09:14:30;26.10;99.90
40340;DHT22;26044;50.864;20.658;2022-08-16T09:16:57;26.00;99.90
40340;DHT22;26044;50.864;20.658;2022-08-16T09:19:32;26.20;99.90
40340;DHT22;26044;50.864;20.658;2022-08-16T09:22:00;26.20;99.90
40340;DHT22;26044;50.864;20.658;2022-08-16T09:24:28;26.40;99.90
40340;DHT22;26044;50.864;20.658;2022-08-16T09:27:15;26.50;99.90
40340;DHT22;26044;50.864;20.658;2022-08-16T09:29:42;26.40;99.90
40340;DHT22;26044;50.864;20.658;2022-08-16T09:32:12;26.50;99.90
40340;DHT22;26044;50.864;20.658;2022-08-16T09:34:55;26.60;99.90
40340;DHT22;26044;50.864;20.658;2022-08-16T09:37:24;26.70;99.90
40340;DHT22;26044;50.864;20.658;2022-08-16T09:39:58;26.80;99.90
40340;DHT22;26044;50.864;20.658;2022-08-16T09:42:27;26.80;99.90
40340;DHT22;26044;50.864;20.658;2022-08-16T09:44:55;26.80;99.90
40340;DHT22;26044;50.864;20.658;2022-08-16T09:47:42;26.90;99.90
40340;DHT22;26044;50.864;20.658;2022-08-16T09:50:25;27.10;99.90
40340;DHT22;26044;50.864;20.658;2022-08-16T09:53:07;27.60;99.90
40340;DHT22;26044;50.864;20.658;2022-08-16T09:55:44;28.50;99.90
40340;DHT22;26044;50.864;20.658;2022-08-16T09:58:20;28.90;99.90
40340;DHT22;26044;50.864;20.658;2022-08-16T10:01:07;29.40;99.90
40340;DHT22;26044;50.864;20.658;2022-08-16T10:03:38;29.20;99.90
40340;DHT22;26044;50.864;20.658;2022-08-16T10:06:25;29.40;99.90
40340;DHT22;26044;50.864;20.658;2022-08-16T10:09:01;29.50;99.90
40340;DHT22;26044;50.864;20.658;2022-08-16T10:11:33;29.60;99.90
40340;DHT22;26044;50.864;20.658;2022-08-16T10:14:19;29.90;99.90
40340;DHT22;26044;50.864;20.658;2022-08-16T10:17:03;29.90;99.90
40340;DHT22;26044;50.864;20.658;2022-08-16T10:19:31;30.00;99.90
40340;DHT22;26044;50.864;20.658;2022-08-16T10:21:58;30.00;99.90
40340;DHT22;26044;50.864;20.658;2022-08-16T10:24:31;30.00;99.90
40340;DHT22;26044;50.864;20.658;2022-08-16T10:26:58;29.80;99.90
40340;DHT22;26044;50.864;20.658;2022-08-16T10:29:46;29.60;99.90
40340;DHT22;26044;50.864;20.658;2022-08-16T10:32:32;29.10;99.90
40340;DHT22;26044;50.864;20.658;2022-08-16T10:35:00;28.90;99.90
40340;DHT22;26044;50.864;20.658;2022-08-16T10:37:29;29.20;99.90
40340;DHT22;26044;50.864;20.658;2022-08-16T10:40:07;29.00;99.90
40340;DHT22;26044;50.864;20.658;2022-08-16T10:42:55;29.10;99.90
40340;DHT22;26044;50.864;20.658;2022-08-16T10:45:23;29.10;99.90
40340;DHT22;26044;50.864;20.658;2022-08-16T10:47:54;29.40;99.90
40340;DHT22;26044;50.864;20.658;2022-08-16T10:50:29;29.20;99.90
40340;DHT22;26044;50.864;20.658;2022-08-16T10:52:57;29.40;99.90
40340;DHT22;26044;50.864;20.658;2022-08-16T10:55:25;29.30;95.60
40340;DHT22;26044;50.864;20.658;2022-08-16T10:58:13;29.40;92.20
40340;DHT22;26044;50.864;20.658;2022-08-16T11:00:43;29.40;92.80
40340;DHT22;26044;50.864;20.658;2022-08-16T11:03:12;29.50;93.60
40340;DHT22;26044;50.864;20.658;2022-08-16T11:06:00;29.50;86.70
40340;DHT22;26044;50.864;20.658;2022-08-16T11:08:33;29.20;93.90
40340;DHT22;26044;50.864;20.658;2022-08-16T11:11:05;28.80;98.00
40340;DHT22;26044;50.864;20.658;2022-08-16T11:13:44;28.80;99.90
40340;DHT22;26044;50.864;20.658;2022-08-16T11:16:32;28.50;98.80
40340;DHT22;26044;50.864;20.658;2022-08-16T11:19:19;28.10;99.60
40340;DHT22;26044;50.864;20.658;2022-08-16T11:21:48;28.30;99.90
40340;DHT22;26044;50.864;20.658;2022-08-16T11:24:35;28.20;99.90
40340;DHT22;26044;50.864;20.658;2022-08-16T11:27:19;28.00;99.90
40340;DHT22;26044;50.864;20.658;2022-08-16T11:29:58;28.10;99.90
40340;DHT22;26044;50.864;20.658;2022-08-16T11:32:28;28.20;99.90
40340;DHT22;26044;50.864;20.658;2022-08-16T11:35:01;28.30;99.90
40340;DHT22;26044;50.864;20.658;2022-08-16T11:37:39;28.30;99.90
40340;DHT22;26044;50.864;20.658;2022-08-16T11:40:29;28.30;99.90
40340;DHT22;26044;50.864;20.658;2022-08-16T11:42:59;28.30;99.90
40340;DHT22;26044;50.864;20.658;2022-08-16T11:45:27;28.00;99.90
40340;DHT22;26044;50.864;20.658;2022-08-16T11:47:59;27.90;99.90
40340;DHT22;26044;50.864;20.658;2022-08-16T11:50:26;27.70;99.90
40340;DHT22;26044;50.864;20.658;2022-08-16T11:52:53;27.60;99.90
40340;DHT22;26044;50.864;20.658;2022-08-16T11:55:20;27.80;99.90
40340;DHT22;26044;50.864;20.658;2022-08-16T11:57:49;27.90;99.90
40340;DHT22;26044;50.864;20.658;2022-08-16T12:00:22;27.90;99.90
40340;DHT22;26044;50.864;20.658;2022-08-16T12:03:08;28.00;99.90
40340;DHT22;26044;50.864;20.658;2022-08-16T12:05:37;27.90;99.90
40340;DHT22;26044;50.864;20.658;2022-08-16T12:08:06;28.00;99.90
40340;DHT22;26044;50.864;20.658;2022-08-16T12:10:36;28.00;99.90
40340;DHT22;26044;50.864;20.658;2022-08-16T12:13:08;27.80;99.90
40340;DHT22;26044;50.864;20.658;2022-08-16T12:15:36;27.60;99.90
40340;DHT22;26044;50.864;20.658;2022-08-16T12:18:04;27.50;99.90
40340;DHT22;26044;50.864;20.658;2022-08-16T12:20:37;27.50;99.90
40340;DHT22;26044;50.864;20.658;2022-08-16T12:23:05;27.50;99.90
40340;DHT22;26044;50.864;20.658;2022-08-16T12:25:34;27.80;99.90
40340;DHT22;26044;50.864;20.658;2022-08-16T12:28:05;28.10;99.90
40340;DHT22;26044;50.864;20.658;2022-08-16T12:30:35;28.00;99.90
40340;DHT22;26044;50.864;20.658;2022-08-16T12:33:06;28.00;99.90
40340;DHT22;26044;50.864;20.658;2022-08-16T12:35:36;28.00;99.90
40340;DHT22;26044;50.864;20.658;2022-08-16T12:38:03;28.00;99.90
40340;DHT22;26044;50.864;20.658;2022-08-16T12:40:51;28.00;99.90
40340;DHT22;26044;50.864;20.658;2022-08-16T12:43:23;27.90;99.90
40340;DHT22;26044;50.864;20.658;2022-08-16T12:45:53;27.60;99.90
40340;DHT22;26044;50.864;20.658;2022-08-16T12:48:24;27.30;99.90
40340;DHT22;26044;50.864;20.658;2022-08-16T12:51:11;27.30;99.90
40340;DHT22;26044;50.864;20.658;2022-08-16T12:53:53;27.20;99.90
40340;DHT22;26044;50.864;20.658;2022-08-16T12:56:24;26.90;99.90
40340;DHT22;26044;50.864;20.658;2022-08-16T12:58:52;26.70;99.90
40340;DHT22;26044;50.864;20.658;2022-08-16T13:01:24;26.60;99.90
40340;DHT22;26044;50.864;20.658;2022-08-16T13:03:53;26.50;99.90
40340;DHT22;26044;50.864;20.658;2022-08-16T13:06:41;26.60;99.90
40340;DHT22;26044;50.864;20.658;2022-08-16T13:09:08;26.50;99.90
40340;DHT22;26044;50.864;20.658;2022-08-16T13:12:12;26.40;99.90
40340;DHT22;26044;50.864;20.658;2022-08-16T13:14:47;26.40;99.90
40340;DHT22;26044;50.864;20.658;2022-08-16T13:17:20;26.30;99.90
40340;DHT22;26044;50.864;20.658;2022-08-16T13:19:48;26.30;99.90
40340;DHT22;26044;50.864;20.658;2022-08-16T13:22:42;26.30;99.90
40340;DHT22;26044;50.864;20.658;2022-08-16T13:25:13;26.20;99.90
40340;DHT22;26044;50.864;20.658;2022-08-16T13:27:47;26.20;99.90
40340;DHT22;26044;50.864;20.658;2022-08-16T13:30:32;26.20;99.90
40340;DHT22;26044;50.864;20.658;2022-08-16T13:33:09;26.20;99.90
40340;DHT22;26044;50.864;20.658;2022-08-16T13:35:43;26.10;99.90
40340;DHT22;26044;50.864;20.658;2022-08-16T13:38:11;26.10;99.90
40340;DHT22;26044;50.864;20.658;2022-08-16T13:40:55;26.10;99.90
40340;DHT22;26044;50.864;20.658;2022-08-16T13:43:26;26.10;99.90
40340;DHT22;26044;50.864;20.658;2022-08-16T13:45:55;25.90;99.90
40340;DHT22;26044;50.864;20.658;2022-08-16T13:48:23;26.00;99.90
40340;DHT22;26044;50.864;20.658;2022-08-16T13:50:56;26.00;99.90
40340;DHT22;26044;50.864;20.658;2022-08-16T13:53:30;26.00;99.90
40340;DHT22;26044;50.864;20.658;2022-08-16T13:55:58;26.00;99.90
40340;DHT22;26044;50.864;20.658;2022-08-16T13:58:26;26.10;99.90
40340;DHT22;26044;50.864;20.658;2022-08-16T14:01:03;26.00;99.90
40340;DHT22;26044;50.864;20.658;2022-08-16T14:03:37;26.10;99.90
40340;DHT22;26044;50.864;20.658;2022-08-16T14:06:08;26.10;99.90
40340;DHT22;26044;50.864;20.658;2022-08-16T14:08:38;26.10;99.90
40340;DHT22;26044;50.864;20.658;2022-08-16T14:11:12;26.20;99.90
40340;DHT22;26044;50.864;20.658;2022-08-16T14:13:41;26.20;99.90
40340;DHT22;26044;50.864;20.658;2022-08-16T14:16:09;26.20;99.90
40340;DHT22;26044;50.864;20.658;2022-08-16T14:18:50;26.30;99.90
40340;DHT22;26044;50.864;20.658;2022-08-16T14:21:19;26.30;99.90
40340;DHT22;26044;50.864;20.658;2022-08-16T14:23:49;26.40;99.90
40340;DHT22;26044;50.864;20.658;2022-08-16T14:26:18;26.40;99.90
40340;DHT22;26044;50.864;20.658;2022-08-16T14:28:47;26.50;99.90
40340;DHT22;26044;50.864;20.658;2022-08-16T14:31:16;26.50;99.90
40340;DHT22;26044;50.864;20.658;2022-08-16T14:33:43;26.50;99.90
40340;DHT22;26044;50.864;20.658;2022-08-16T14:36:11;26.50;99.90
40340;DHT22;26044;50.864;20.658;2022-08-16T14:38:55;26.60;99.90
40340;DHT22;26044;50.864;20.658;2022-08-16T14:41:23;26.50;99.90
40340;DHT22;26044;50.864;20.658;2022-08-16T14:43:49;26.60;99.90
40340;DHT22;26044;50.864;20.658;2022-08-16T14:46:16;26.60;99.90
40340;DHT22;26044;50.864;20.658;2022-08-16T14:48:45;26.60;99.90
40340;DHT22;26044;50.864;20.658;2022-08-16T14:51:12;26.60;99.90
40340;DHT22;26044;50.864;20.658;2022-08-16T14:53:41;26.60;99.90
40340;DHT22;26044;50.864;20.658;2022-08-16T14:56:11;26.60;99.90
40340;DHT22;26044;50.864;20.658;2022-08-16T14:58:58;26.60;99.90
40340;DHT22;26044;50.864;20.658;2022-08-16T15:01:27;26.60;99.90
40340;DHT22;26044;50.864;20.658;2022-08-16T15:04:14;26.50;99.90
40340;DHT22;26044;50.864;20.658;2022-08-16T15:07:00;26.50;99.90
40340;DHT22;26044;50.864;20.658;2022-08-16T15:09:30;26.40;99.90
40340;DHT22;26044;50.864;20.658;2022-08-16T15:12:07;26.40;99.90
40340;DHT22;26044;50.864;20.658;2022-08-16T15:14:54;26.40;99.90
40340;DHT22;26044;50.864;20.658;2022-08-16T15:17:22;26.30;99.90
40340;DHT22;26044;50.864;20.658;2022-08-16T15:19:52;26.30;99.90
40340;DHT22;26044;50.864;20.658;2022-08-16T15:22:28;26.30;99.90
40340;DHT22;26044;50.864;20.658;2022-08-16T15:25:00;26.30;99.90
40340;DHT22;26044;50.864;20.658;2022-08-16T15:27:29;26.20;99.90
40340;DHT22;26044;50.864;20.658;2022-08-16T15:30:03;26.20;99.90
40340;DHT22;26044;50.864;20.658;2022-08-16T15:32:55;26.10;99.90
40340;DHT22;26044;50.864;20.658;2022-08-16T15:35:25;26.10;99.90
40340;DHT22;26044;50.864;20.658;2022-08-16T15:37:55;26.10;99.90
40340;DHT22;26044;50.864;20.658;2022-08-16T15:40:22;26.10;99.90
40340;DHT22;26044;50.864;20.658;2022-08-16T15:43:01;26.10;99.90
40340;DHT22;26044;50.864;20.658;2022-08-16T15:45:28;26.00;99.90
40340;DHT22;26044;50.864;20.658;2022-08-16T15:48:21;26.00;99.90
40340;DHT22;26044;50.864;20.658;2022-08-16T15:50:57;26.00;99.90
40340;DHT22;26044;50.864;20.658;2022-08-16T15:53:24;25.90;99.90
40340;DHT22;26044;50.864;20.658;2022-08-16T15:55:53;25.90;99.90
40340;DHT22;26044;50.864;20.658;2022-08-16T15:58:21;25.90;99.90